createdAt,value
2023-03-19T00:00:06.000Z,198
2023-03-19T00:01:22.000Z,198
2023-03-19T00:02:38.000Z,198
2023-03-19T00:03:53.000Z,198
2023-03-19T00:05:10.000Z,197
2023-03-19T00:06:26.000Z,199
2023-03-19T00:07:42.000Z,197
2023-03-19T00:08:58.000Z,195
2023-03-19T00:10:15.000Z,197
2023-03-19T00:11:31.000Z,194
2023-03-19T00:12:47.000Z,195
2023-03-19T00:14:03.000Z,194
2023-03-19T00:15:20.000Z,196
2023-03-19T00:16:36.000Z,197
2023-03-19T00:17:52.000Z,195
2023-03-19T00:19:08.000Z,199
2023-03-19T00:20:24.000Z,202
2023-03-19T00:21:40.000Z,192
2023-03-19T00:22:56.000Z,160
2023-03-19T00:24:12.000Z,165
2023-03-19T00:25:28.000Z,166
2023-03-19T00:26:45.000Z,163
2023-03-19T00:28:01.000Z,166
2023-03-19T00:29:17.000Z,165
2023-03-19T00:30:33.000Z,165
2023-03-19T00:31:50.000Z,165
2023-03-19T00:33:06.000Z,165
2023-03-19T00:35:38.000Z,161
2023-03-19T00:36:54.000Z,162
2023-03-19T00:38:10.000Z,162
2023-03-19T00:39:26.000Z,161
2023-03-19T00:40:42.000Z,161
2023-03-19T00:41:59.000Z,161
2023-03-19T00:43:15.000Z,161
2023-03-19T00:44:31.000Z,160
2023-03-19T00:45:47.000Z,161
2023-03-19T00:47:03.000Z,161
2023-03-19T00:48:20.000Z,157
2023-03-19T00:49:36.000Z,161
2023-03-19T00:50:52.000Z,160
2023-03-19T00:52:08.000Z,158
2023-03-19T00:53:24.000Z,161
2023-03-19T00:54:40.000Z,160
2023-03-19T00:55:56.000Z,157
2023-03-19T00:57:12.000Z,161
2023-03-19T00:58:29.000Z,162
2023-03-19T00:59:45.000Z,159
2023-03-19T01:01:01.000Z,160
2023-03-19T01:02:17.000Z,161
2023-03-19T01:03:34.000Z,158
2023-03-19T01:04:50.000Z,161
2023-03-19T01:06:06.000Z,161
2023-03-19T01:07:22.000Z,158
2023-03-19T01:08:38.000Z,157
2023-03-19T01:09:54.000Z,159
2023-03-19T01:11:10.000Z,155
2023-03-19T01:12:26.000Z,156
2023-03-19T01:13:42.000Z,155
2023-03-19T01:14:59.000Z,154
2023-03-19T01:16:15.000Z,152
2023-03-19T01:17:31.000Z,152
2023-03-19T01:18:47.000Z,151
2023-03-19T01:20:04.000Z,151
2023-03-19T01:21:20.000Z,149
2023-03-19T01:22:36.000Z,154
2023-03-19T01:23:52.000Z,153
2023-03-19T01:25:09.000Z,156
2023-03-19T01:26:24.000Z,160
2023-03-19T01:27:40.000Z,159
2023-03-19T01:28:56.000Z,160
2023-03-19T01:30:12.000Z,161
2023-03-19T01:31:29.000Z,156
2023-03-19T01:32:45.000Z,156
2023-03-19T01:34:00.000Z,158
2023-03-19T01:35:15.000Z,156
2023-03-19T01:36:32.000Z,155
2023-03-19T01:37:48.000Z,153
2023-03-19T01:39:04.000Z,152
2023-03-19T01:40:19.000Z,152
2023-03-19T01:41:36.000Z,151
2023-03-19T01:42:51.000Z,153
2023-03-19T01:44:07.000Z,152
2023-03-19T01:45:23.000Z,149
2023-03-19T01:46:40.000Z,153
2023-03-19T01:47:56.000Z,153
2023-03-19T01:49:12.000Z,154
2023-03-19T01:50:28.000Z,156
2023-03-19T01:51:45.000Z,161
2023-03-19T01:53:01.000Z,161
2023-03-19T01:54:17.000Z,161
2023-03-19T01:55:33.000Z,162
2023-03-19T01:56:49.000Z,165
2023-03-19T01:58:06.000Z,167
2023-03-19T01:59:21.000Z,165
2023-03-19T02:00:37.000Z,169
2023-03-19T02:01:53.000Z,165
2023-03-19T02:03:10.000Z,163
2023-03-19T02:04:26.000Z,165
2023-03-19T02:05:42.000Z,163
2023-03-19T02:06:58.000Z,162
2023-03-19T02:08:14.000Z,162
2023-03-19T02:09:29.000Z,161
2023-03-19T02:10:45.000Z,160
2023-03-19T02:12:01.000Z,160
2023-03-19T02:13:18.000Z,160
2023-03-19T02:14:34.000Z,161
2023-03-19T02:15:50.000Z,158
2023-03-19T02:17:06.000Z,158
2023-03-19T02:18:22.000Z,155
2023-03-19T02:19:37.000Z,158
2023-03-19T02:20:53.000Z,158
2023-03-19T02:22:09.000Z,157
2023-03-19T02:23:25.000Z,158
2023-03-19T02:24:42.000Z,157
2023-03-19T02:25:58.000Z,157
2023-03-19T02:27:14.000Z,154
2023-03-19T02:28:30.000Z,156
2023-03-19T02:29:47.000Z,155
2023-03-19T02:31:03.000Z,156
2023-03-19T02:32:19.000Z,155
2023-03-19T02:33:35.000Z,153
2023-03-19T02:34:52.000Z,154
2023-03-19T02:36:08.000Z,156
2023-03-19T02:37:23.000Z,152
2023-03-19T02:38:39.000Z,155
2023-03-19T02:39:56.000Z,152
2023-03-19T02:41:12.000Z,153
2023-03-19T02:42:28.000Z,154
2023-03-19T02:43:44.000Z,152
2023-03-19T02:45:00.000Z,153
2023-03-19T02:46:17.000Z,155
2023-03-19T02:47:33.000Z,154
2023-03-19T02:48:49.000Z,153
2023-03-19T02:50:05.000Z,154
2023-03-19T02:51:22.000Z,155
2023-03-19T02:52:38.000Z,157
2023-03-19T02:53:53.000Z,154
2023-03-19T02:55:09.000Z,154
2023-03-19T02:56:26.000Z,155
2023-03-19T02:57:42.000Z,154
2023-03-19T02:58:58.000Z,153
2023-03-19T03:00:14.000Z,154
2023-03-19T03:01:31.000Z,156
2023-03-19T03:02:47.000Z,156
2023-03-19T03:04:03.000Z,156
2023-03-19T03:05:19.000Z,156
2023-03-19T03:06:35.000Z,156
2023-03-19T03:07:52.000Z,159
2023-03-19T03:09:08.000Z,156
2023-03-19T03:10:23.000Z,158
2023-03-19T03:11:39.000Z,160
2023-03-19T03:12:56.000Z,160
2023-03-19T03:14:12.000Z,161
2023-03-19T03:15:28.000Z,157
2023-03-19T03:16:44.000Z,159
2023-03-19T03:18:01.000Z,163
2023-03-19T03:19:17.000Z,162
2023-03-19T03:20:33.000Z,161
2023-03-19T03:21:49.000Z,164
2023-03-19T03:23:06.000Z,164
2023-03-19T03:24:22.000Z,165
2023-03-19T03:25:38.000Z,165
2023-03-19T03:26:53.000Z,165
2023-03-19T03:28:09.000Z,165
2023-03-19T03:29:25.000Z,163
2023-03-19T03:30:41.000Z,163
2023-03-19T03:31:57.000Z,165
2023-03-19T03:33:13.000Z,165
2023-03-19T03:34:30.000Z,165
2023-03-19T03:35:46.000Z,165
2023-03-19T03:37:02.000Z,163
2023-03-19T03:38:18.000Z,161
2023-03-19T03:39:35.000Z,163
2023-03-19T03:40:51.000Z,161
2023-03-19T03:42:07.000Z,163
2023-03-19T03:43:23.000Z,160
2023-03-19T03:44:40.000Z,158
2023-03-19T03:45:55.000Z,163
2023-03-19T03:47:11.000Z,161
2023-03-19T03:48:27.000Z,158
2023-03-19T03:49:43.000Z,160
2023-03-19T03:51:00.000Z,157
2023-03-19T03:52:16.000Z,157
2023-03-19T03:53:32.000Z,159
2023-03-19T03:54:48.000Z,161
2023-03-19T03:56:05.000Z,157
2023-03-19T03:57:21.000Z,155
2023-03-19T03:58:37.000Z,153
2023-03-19T03:59:53.000Z,155
2023-03-19T04:01:10.000Z,154
2023-03-19T04:02:25.000Z,153
2023-03-19T04:03:41.000Z,149
2023-03-19T04:04:57.000Z,153
2023-03-19T04:06:14.000Z,153
2023-03-19T04:07:30.000Z,153
2023-03-19T04:08:46.000Z,150
2023-03-19T04:10:02.000Z,149
2023-03-19T04:11:18.000Z,150
2023-03-19T04:12:35.000Z,149
2023-03-19T04:13:51.000Z,152
2023-03-19T04:15:07.000Z,150
2023-03-19T04:16:23.000Z,149
2023-03-19T04:17:40.000Z,146
2023-03-19T04:18:55.000Z,148
2023-03-19T04:21:27.000Z,145
2023-03-19T04:22:44.000Z,147
2023-03-19T04:24:00.000Z,145
2023-03-19T04:25:16.000Z,144
2023-03-19T04:26:32.000Z,142
2023-03-19T04:27:49.000Z,142
2023-03-19T04:29:05.000Z,141
2023-03-19T04:30:21.000Z,142
2023-03-19T04:31:37.000Z,143
2023-03-19T04:32:53.000Z,143
2023-03-19T04:34:10.000Z,143
2023-03-19T04:35:25.000Z,141
2023-03-19T04:36:41.000Z,138
2023-03-19T04:37:57.000Z,140
2023-03-19T04:39:14.000Z,138
2023-03-19T04:40:30.000Z,141
2023-03-19T04:41:46.000Z,143
2023-03-19T04:43:02.000Z,139
2023-03-19T04:44:19.000Z,143
2023-03-19T04:45:35.000Z,140
2023-03-19T04:46:51.000Z,139
2023-03-19T04:48:07.000Z,143
2023-03-19T04:49:24.000Z,139
2023-03-19T04:50:40.000Z,141
2023-03-19T04:51:55.000Z,143
2023-03-19T04:53:11.000Z,140
2023-03-19T04:54:27.000Z,142
2023-03-19T04:55:44.000Z,143
2023-03-19T04:57:00.000Z,144
2023-03-19T04:58:16.000Z,142
2023-03-19T04:59:32.000Z,140
2023-03-19T05:00:49.000Z,144
2023-03-19T05:02:05.000Z,139
2023-03-19T05:03:21.000Z,140
2023-03-19T05:04:37.000Z,141
2023-03-19T05:05:54.000Z,142
2023-03-19T05:07:10.000Z,141
2023-03-19T05:08:25.000Z,143
2023-03-19T05:09:41.000Z,144
2023-03-19T05:10:58.000Z,145
2023-03-19T05:12:14.000Z,143
2023-03-19T05:13:30.000Z,144
2023-03-19T05:14:46.000Z,146
2023-03-19T05:16:02.000Z,142
2023-03-19T05:17:19.000Z,143
2023-03-19T05:18:35.000Z,146
2023-03-19T05:19:51.000Z,151
2023-03-19T05:21:07.000Z,152
2023-03-19T05:22:24.000Z,155
2023-03-19T05:23:40.000Z,156
2023-03-19T05:24:55.000Z,157
2023-03-19T05:26:11.000Z,164
2023-03-19T05:27:28.000Z,170
2023-03-19T05:28:44.000Z,176
2023-03-19T05:30:00.000Z,143
2023-03-19T05:31:16.000Z,42
2023-03-19T05:32:33.000Z,50
2023-03-19T05:33:49.000Z,54
2023-03-19T05:35:05.000Z,65
2023-03-19T05:36:21.000Z,75
2023-03-19T05:37:37.000Z,93
2023-03-19T05:38:54.000Z,108
2023-03-19T05:40:10.000Z,119
2023-03-19T05:41:25.000Z,133
2023-03-19T05:42:41.000Z,150
2023-03-19T05:43:58.000Z,165
2023-03-19T05:45:14.000Z,178
2023-03-19T05:46:30.000Z,193
2023-03-19T05:47:46.000Z,207
2023-03-19T05:49:03.000Z,223
2023-03-19T05:50:19.000Z,247
2023-03-19T05:51:35.000Z,259
2023-03-19T05:52:51.000Z,272
2023-03-19T05:54:08.000Z,295
2023-03-19T05:55:24.000Z,319
2023-03-19T05:56:40.000Z,364
2023-03-19T05:57:55.000Z,377
2023-03-19T05:59:11.000Z,376
2023-03-19T06:00:28.000Z,396
2023-03-19T06:01:44.000Z,422
2023-03-19T06:03:00.000Z,461
2023-03-19T06:04:16.000Z,495
2023-03-19T06:05:33.000Z,541
2023-03-19T06:06:49.000Z,585
2023-03-19T06:08:05.000Z,630
2023-03-19T06:09:21.000Z,682
2023-03-19T06:10:38.000Z,736
2023-03-19T06:11:54.000Z,797
2023-03-19T06:13:10.000Z,839
2023-03-19T06:14:25.000Z,873
2023-03-19T06:15:42.000Z,920
2023-03-19T06:16:58.000Z,975
2023-03-19T06:18:14.000Z,1037
2023-03-19T06:19:30.000Z,1098
2023-03-19T06:20:46.000Z,1176
2023-03-19T06:22:03.000Z,1180
2023-03-19T06:23:19.000Z,1207
2023-03-19T06:24:35.000Z,1248
2023-03-19T06:25:51.000Z,1323
2023-03-19T06:27:08.000Z,1400
2023-03-19T06:28:24.000Z,1423
2023-03-19T06:29:40.000Z,1521
2023-03-19T06:30:55.000Z,1662
2023-03-19T06:32:12.000Z,1835
2023-03-19T06:33:28.000Z,1916
2023-03-19T06:34:44.000Z,2046
2023-03-19T06:36:00.000Z,2129
2023-03-19T06:37:17.000Z,2186
2023-03-19T06:38:33.000Z,2088
2023-03-19T06:39:49.000Z,2774
2023-03-19T06:41:05.000Z,2537
2023-03-19T06:42:21.000Z,2774
2023-03-19T06:43:38.000Z,2712
2023-03-19T06:44:54.000Z,2699
2023-03-19T06:46:10.000Z,2809
2023-03-19T06:47:25.000Z,2944
2023-03-19T06:48:42.000Z,3210
2023-03-19T06:49:58.000Z,3232
2023-03-19T06:51:14.000Z,3212
2023-03-19T06:52:30.000Z,3180
2023-03-19T06:53:47.000Z,3195
2023-03-19T06:55:03.000Z,3249
2023-03-19T06:56:19.000Z,3281
2023-03-19T06:57:35.000Z,3360
2023-03-19T06:58:51.000Z,3189
2023-03-19T07:00:08.000Z,3522
2023-03-19T07:01:24.000Z,3936
2023-03-19T07:02:40.000Z,4044
2023-03-19T07:03:55.000Z,3954
2023-03-19T07:05:12.000Z,3932
2023-03-19T07:06:28.000Z,3958
2023-03-19T07:07:44.000Z,3990
2023-03-19T07:09:00.000Z,4196
2023-03-19T07:10:17.000Z,4465
2023-03-19T07:11:33.000Z,4682
2023-03-19T07:12:49.000Z,4801
2023-03-19T07:14:05.000Z,4977
2023-03-19T07:15:22.000Z,5082
2023-03-19T07:16:38.000Z,5109
2023-03-19T07:17:54.000Z,5002
2023-03-19T07:19:10.000Z,4387
2023-03-19T07:20:26.000Z,4322
2023-03-19T07:21:42.000Z,5091
2023-03-19T07:22:58.000Z,6535
2023-03-19T07:24:14.000Z,6697
2023-03-19T07:25:30.000Z,6372
2023-03-19T07:26:47.000Z,5983
2023-03-19T07:28:03.000Z,5629
2023-03-19T07:29:19.000Z,5114
2023-03-19T07:30:35.000Z,4276
2023-03-19T07:31:52.000Z,4492
2023-03-19T07:33:08.000Z,5030
2023-03-19T07:34:24.000Z,4511
2023-03-19T07:35:40.000Z,3778
2023-03-19T07:36:57.000Z,3035
2023-03-19T07:38:12.000Z,3270
2023-03-19T07:39:28.000Z,2755
2023-03-19T07:40:44.000Z,3101
2023-03-19T07:42:00.000Z,4452
2023-03-19T07:43:17.000Z,4677
2023-03-19T07:44:32.000Z,4781
2023-03-19T07:45:48.000Z,5106
2023-03-19T07:47:04.000Z,5486
2023-03-19T07:48:21.000Z,5726
2023-03-19T07:49:37.000Z,5692
2023-03-19T07:50:53.000Z,5092
2023-03-19T07:52:09.000Z,5159
2023-03-19T07:53:26.000Z,4807
2023-03-19T07:54:42.000Z,4325
2023-03-19T07:57:14.000Z,5214
2023-03-19T07:58:31.000Z,7156
2023-03-19T07:59:47.000Z,8220
2023-03-19T08:01:02.000Z,7547
2023-03-19T08:02:18.000Z,6819
2023-03-19T08:03:35.000Z,6365
2023-03-19T08:04:51.000Z,6191
2023-03-19T08:06:07.000Z,6000
2023-03-19T08:07:23.000Z,5738
2023-03-19T08:08:39.000Z,6090
2023-03-19T08:09:56.000Z,6483
2023-03-19T08:11:12.000Z,6540
2023-03-19T08:12:28.000Z,6497
2023-03-19T08:13:44.000Z,6882
2023-03-19T08:15:01.000Z,6705
2023-03-19T08:16:17.000Z,6619
2023-03-19T08:17:32.000Z,6487
2023-03-19T08:18:48.000Z,6386
2023-03-19T08:20:05.000Z,6674
2023-03-19T08:21:21.000Z,6780
2023-03-19T08:22:37.000Z,6932
2023-03-19T08:23:53.000Z,7385
2023-03-19T08:25:09.000Z,7768
2023-03-19T08:26:26.000Z,7885
2023-03-19T08:27:42.000Z,7773
2023-03-19T08:28:58.000Z,7059
2023-03-19T08:30:14.000Z,6095
2023-03-19T08:31:31.000Z,5642
2023-03-19T08:32:47.000Z,5084
2023-03-19T08:34:02.000Z,5139
2023-03-19T08:35:18.000Z,5642
2023-03-19T08:36:35.000Z,5942
2023-03-19T08:37:51.000Z,6536
2023-03-19T08:39:07.000Z,6605
2023-03-19T08:40:23.000Z,6887
2023-03-19T08:41:40.000Z,7047
2023-03-19T08:42:56.000Z,6846
2023-03-19T08:44:12.000Z,6795
2023-03-19T08:45:28.000Z,7833
2023-03-19T08:46:44.000Z,7661
2023-03-19T08:48:01.000Z,8413
2023-03-19T08:49:17.000Z,7859
2023-03-19T08:50:32.000Z,7037
2023-03-19T08:51:48.000Z,6348
2023-03-19T08:53:05.000Z,6776
2023-03-19T08:54:21.000Z,7471
2023-03-19T08:55:37.000Z,6825
2023-03-19T08:56:53.000Z,5029
2023-03-19T08:58:10.000Z,5948
2023-03-19T08:59:26.000Z,6077
2023-03-19T09:00:42.000Z,6480
2023-03-19T09:01:58.000Z,6641
2023-03-19T09:03:15.000Z,6656
2023-03-19T09:04:31.000Z,5894
2023-03-19T09:05:47.000Z,5619
2023-03-19T09:07:02.000Z,5814
2023-03-19T09:08:18.000Z,6049
2023-03-19T09:09:35.000Z,7381
2023-03-19T09:10:51.000Z,6659
2023-03-19T09:12:07.000Z,6958
2023-03-19T09:13:23.000Z,9815
2023-03-19T09:15:56.000Z,7110
2023-03-19T09:17:12.000Z,9909
2023-03-19T09:18:28.000Z,8917
2023-03-19T09:19:45.000Z,9410
2023-03-19T09:21:01.000Z,8956
2023-03-19T09:22:17.000Z,7885
2023-03-19T09:23:32.000Z,8863
2023-03-19T09:24:49.000Z,7725
2023-03-19T09:26:05.000Z,6233
2023-03-19T09:27:21.000Z,4602
2023-03-19T09:28:37.000Z,3579
2023-03-19T09:29:53.000Z,2966
2023-03-19T09:31:10.000Z,2662
2023-03-19T09:32:26.000Z,2022
2023-03-19T09:33:41.000Z,1803
2023-03-19T09:34:56.000Z,2218
2023-03-19T09:36:13.000Z,2689
2023-03-19T09:37:29.000Z,3705
2023-03-19T09:38:45.000Z,2771
2023-03-19T09:40:01.000Z,4663
2023-03-19T09:41:17.000Z,7266
2023-03-19T09:42:32.000Z,7992
2023-03-19T09:43:48.000Z,8473
2023-03-19T09:45:04.000Z,9886
2023-03-19T09:46:21.000Z,10784
2023-03-19T09:47:37.000Z,11045
2023-03-19T09:48:53.000Z,11109
2023-03-19T09:50:09.000Z,11311
2023-03-19T09:51:26.000Z,10705
2023-03-19T09:52:42.000Z,9031
2023-03-19T09:53:58.000Z,8938
2023-03-19T09:55:14.000Z,11630
2023-03-19T09:56:30.000Z,11051
2023-03-19T09:57:47.000Z,8950
2023-03-19T09:59:02.000Z,7196
2023-03-19T10:00:18.000Z,8139
2023-03-19T10:01:34.000Z,9551
2023-03-19T10:02:51.000Z,8123
2023-03-19T10:04:07.000Z,6316
2023-03-19T10:05:23.000Z,5677
2023-03-19T10:06:39.000Z,7849
2023-03-19T10:07:56.000Z,5337
2023-03-19T10:09:12.000Z,5181
2023-03-19T10:10:28.000Z,9813
2023-03-19T10:11:44.000Z,11934
2023-03-19T10:13:01.000Z,12418
2023-03-19T10:14:17.000Z,12073
2023-03-19T10:15:32.000Z,12220
2023-03-19T10:16:48.000Z,10007
2023-03-19T10:18:04.000Z,10096
2023-03-19T10:19:21.000Z,10383
2023-03-19T10:20:37.000Z,11186
2023-03-19T10:21:53.000Z,9689
2023-03-19T10:23:09.000Z,9283
2023-03-19T10:24:26.000Z,7803
2023-03-19T10:25:42.000Z,4922
2023-03-19T10:26:58.000Z,7772
2023-03-19T10:28:14.000Z,9315
2023-03-19T10:29:31.000Z,9858
2023-03-19T10:30:47.000Z,10583
2023-03-19T10:32:02.000Z,12398
2023-03-19T10:33:18.000Z,13224
2023-03-19T10:34:35.000Z,10089
2023-03-19T10:35:51.000Z,11172
2023-03-19T10:37:07.000Z,12098
2023-03-19T10:38:23.000Z,10439
2023-03-19T10:39:39.000Z,11487
2023-03-19T10:40:56.000Z,11586
2023-03-19T10:42:12.000Z,10904
2023-03-19T10:43:28.000Z,8828
2023-03-19T10:44:44.000Z,7010
2023-03-19T10:46:01.000Z,6181
2023-03-19T10:47:17.000Z,6600
2023-03-19T10:48:32.000Z,5715
2023-03-19T10:49:48.000Z,6279
2023-03-19T10:51:05.000Z,7098
2023-03-19T10:52:21.000Z,7584
2023-03-19T10:53:37.000Z,7151
2023-03-19T10:54:53.000Z,7466
2023-03-19T10:56:10.000Z,7796
2023-03-19T10:57:26.000Z,6083
2023-03-19T10:58:42.000Z,4807
2023-03-19T10:59:58.000Z,6416
2023-03-19T11:01:14.000Z,8736
2023-03-19T11:02:31.000Z,7779
2023-03-19T11:03:47.000Z,6397
2023-03-19T11:05:02.000Z,9691
2023-03-19T11:06:18.000Z,10382
2023-03-19T11:07:35.000Z,10360
2023-03-19T11:08:51.000Z,11801
2023-03-19T11:10:07.000Z,12269
2023-03-19T11:11:23.000Z,12419
2023-03-19T11:12:40.000Z,12904
2023-03-19T11:13:56.000Z,12613
2023-03-19T11:15:12.000Z,12241
2023-03-19T11:16:28.000Z,11748
2023-03-19T11:17:45.000Z,10830
2023-03-19T11:19:01.000Z,10312
2023-03-19T11:20:17.000Z,9739
2023-03-19T11:21:32.000Z,9424
2023-03-19T11:22:48.000Z,9773
2023-03-19T11:24:05.000Z,10414
2023-03-19T11:25:21.000Z,9831
2023-03-19T11:26:37.000Z,10083
2023-03-19T11:27:53.000Z,11263
2023-03-19T11:29:10.000Z,12635
2023-03-19T11:30:26.000Z,12017
2023-03-19T11:31:42.000Z,13237
2023-03-19T11:32:58.000Z,13096
2023-03-19T11:34:15.000Z,11571
2023-03-19T11:35:31.000Z,9915
2023-03-19T11:36:46.000Z,8285
2023-03-19T11:38:01.000Z,9312
2023-03-19T11:39:17.000Z,9424
2023-03-19T11:40:32.000Z,8022
2023-03-19T11:41:48.000Z,7297
2023-03-19T11:43:04.000Z,6961
2023-03-19T11:44:21.000Z,9983
2023-03-19T11:45:37.000Z,11058
2023-03-19T11:46:53.000Z,11922
2023-03-19T11:48:09.000Z,10845
2023-03-19T11:49:25.000Z,10099
2023-03-19T11:50:42.000Z,10482
2023-03-19T11:51:58.000Z,10057
2023-03-19T11:53:14.000Z,9382
2023-03-19T11:54:30.000Z,9119
2023-03-19T11:55:47.000Z,8910
2023-03-19T11:57:02.000Z,8945
2023-03-19T11:58:18.000Z,8598
2023-03-19T11:59:33.000Z,9217
2023-03-19T12:00:50.000Z,9972
2023-03-19T12:02:06.000Z,10003
2023-03-19T12:03:22.000Z,10438
2023-03-19T12:04:38.000Z,11266
2023-03-19T12:05:55.000Z,11905
2023-03-19T12:07:11.000Z,12035
2023-03-19T12:08:27.000Z,12129
2023-03-19T12:09:43.000Z,12218
2023-03-19T12:10:59.000Z,11163
2023-03-19T12:12:16.000Z,11217
2023-03-19T12:14:48.000Z,10127
2023-03-19T12:16:03.000Z,10977
2023-03-19T12:17:20.000Z,10378
2023-03-19T12:18:36.000Z,11207
2023-03-19T12:19:52.000Z,12096
2023-03-19T12:21:08.000Z,12066
2023-03-19T12:22:25.000Z,12294
2023-03-19T12:23:41.000Z,12143
2023-03-19T12:24:57.000Z,12877
2023-03-19T12:26:13.000Z,13432
2023-03-19T12:27:30.000Z,13194
2023-03-19T12:28:46.000Z,11590
2023-03-19T12:30:02.000Z,10510
2023-03-19T12:31:18.000Z,10687
2023-03-19T12:32:33.000Z,9363
2023-03-19T12:33:50.000Z,9321
2023-03-19T12:35:06.000Z,7799
2023-03-19T12:36:22.000Z,5939
2023-03-19T12:37:38.000Z,6457
2023-03-19T12:38:55.000Z,8250
2023-03-19T12:40:11.000Z,9502
2023-03-19T12:41:27.000Z,10265
2023-03-19T12:42:43.000Z,10551
2023-03-19T12:44:00.000Z,11771
2023-03-19T12:45:16.000Z,11811
2023-03-19T12:47:48.000Z,11867
2023-03-19T12:49:04.000Z,11309
2023-03-19T12:51:36.000Z,10363
2023-03-19T12:52:52.000Z,10674
2023-03-19T12:54:08.000Z,11111
2023-03-19T12:55:25.000Z,11589
2023-03-19T12:56:41.000Z,12800
2023-03-19T12:57:57.000Z,13027
2023-03-19T12:59:13.000Z,12480
2023-03-19T13:00:30.000Z,11766
2023-03-19T13:01:46.000Z,11138
2023-03-19T13:03:02.000Z,10524
2023-03-19T13:04:18.000Z,9929
2023-03-19T13:05:34.000Z,9440
2023-03-19T13:06:50.000Z,9366
2023-03-19T13:08:06.000Z,9275
2023-03-19T13:09:22.000Z,9186
2023-03-19T13:10:39.000Z,9007
2023-03-19T13:11:55.000Z,8950
2023-03-19T13:13:11.000Z,9670
2023-03-19T13:14:27.000Z,11143
2023-03-19T13:15:43.000Z,13139
2023-03-19T13:17:00.000Z,15783
2023-03-19T13:18:16.000Z,18253
2023-03-19T13:19:32.000Z,20164
2023-03-19T13:20:48.000Z,18664
2023-03-19T13:22:04.000Z,17137
2023-03-19T13:23:20.000Z,16512
2023-03-19T13:24:36.000Z,14627
2023-03-19T13:25:52.000Z,13776
2023-03-19T13:27:09.000Z,11813
2023-03-19T13:28:25.000Z,9667
2023-03-19T13:29:41.000Z,8568
2023-03-19T13:30:57.000Z,8184
2023-03-19T13:32:14.000Z,7802
2023-03-19T13:33:30.000Z,7417
2023-03-19T13:34:46.000Z,7191
2023-03-19T13:36:02.000Z,6914
2023-03-19T13:37:18.000Z,6927
2023-03-19T13:38:34.000Z,6902
2023-03-19T13:39:50.000Z,7050
2023-03-19T13:41:06.000Z,7352
2023-03-19T13:42:22.000Z,7762
2023-03-19T13:43:39.000Z,8262
2023-03-19T13:44:55.000Z,9186
2023-03-19T13:46:11.000Z,11258
2023-03-19T13:47:27.000Z,12586
2023-03-19T13:48:44.000Z,12443
2023-03-19T13:50:00.000Z,12011
2023-03-19T13:51:16.000Z,12017
2023-03-19T13:52:32.000Z,11325
2023-03-19T13:53:49.000Z,10589
2023-03-19T13:55:04.000Z,10136
2023-03-19T13:56:20.000Z,9191
2023-03-19T13:57:36.000Z,8432
2023-03-19T13:58:52.000Z,8098
2023-03-19T14:00:09.000Z,8472
2023-03-19T14:01:25.000Z,8502
2023-03-19T14:02:41.000Z,8375
2023-03-19T14:05:14.000Z,7451
2023-03-19T14:06:30.000Z,8539
2023-03-19T14:07:46.000Z,8432
2023-03-19T14:09:02.000Z,9691
2023-03-19T14:10:19.000Z,9632
2023-03-19T14:11:34.000Z,10642
2023-03-19T14:12:50.000Z,9808
2023-03-19T14:14:06.000Z,13212
2023-03-19T14:15:23.000Z,9450
2023-03-19T14:16:39.000Z,18166
2023-03-19T14:17:55.000Z,24732
2023-03-19T14:19:11.000Z,29911
2023-03-19T14:20:27.000Z,29200
2023-03-19T14:21:44.000Z,27218
2023-03-19T14:23:00.000Z,25470
2023-03-19T14:24:16.000Z,11170
2023-03-19T14:25:32.000Z,25499
2023-03-19T14:26:49.000Z,18606
2023-03-19T14:28:04.000Z,21324
2023-03-19T14:29:20.000Z,12032
2023-03-19T14:30:36.000Z,21246
2023-03-19T14:31:53.000Z,12673
2023-03-19T14:33:09.000Z,12481
2023-03-19T14:34:25.000Z,3123
2023-03-19T14:35:41.000Z,15377
2023-03-19T14:36:57.000Z,19802
2023-03-19T14:38:14.000Z,7644
2023-03-19T14:39:30.000Z,6189
2023-03-19T14:40:46.000Z,5185
2023-03-19T14:42:02.000Z,7449
2023-03-19T14:43:19.000Z,8480
2023-03-19T14:44:34.000Z,3740
2023-03-19T14:45:50.000Z,13982
2023-03-19T14:47:06.000Z,14712
2023-03-19T14:48:23.000Z,10140
2023-03-19T14:49:39.000Z,9692
2023-03-19T14:50:55.000Z,9403
2023-03-19T14:52:11.000Z,3347
2023-03-19T14:53:28.000Z,15992
2023-03-19T14:54:44.000Z,3671
2023-03-19T14:56:00.000Z,11981
2023-03-19T14:57:16.000Z,16927
2023-03-19T14:58:32.000Z,20620
2023-03-19T14:59:49.000Z,30777
2023-03-19T15:01:04.000Z,17873
2023-03-19T15:02:20.000Z,10819
2023-03-19T15:03:36.000Z,3141
2023-03-19T15:04:53.000Z,16611
2023-03-19T15:06:09.000Z,7702
2023-03-19T15:07:25.000Z,7324
2023-03-19T15:08:41.000Z,7093
2023-03-19T15:09:58.000Z,6864
2023-03-19T15:11:14.000Z,6768
2023-03-19T15:12:30.000Z,6773
2023-03-19T15:13:46.000Z,6666
2023-03-19T15:15:03.000Z,6594
2023-03-19T15:16:19.000Z,6275
2023-03-19T15:17:34.000Z,6163
2023-03-19T15:18:50.000Z,6322
2023-03-19T15:20:06.000Z,6345
2023-03-19T15:21:23.000Z,6548
2023-03-19T15:22:39.000Z,6697
2023-03-19T15:23:55.000Z,6525
2023-03-19T15:25:11.000Z,6066
2023-03-19T15:26:28.000Z,5690
2023-03-19T15:27:44.000Z,5454
2023-03-19T15:29:00.000Z,5049
2023-03-19T15:31:33.000Z,4080
2023-03-19T15:32:49.000Z,3714
2023-03-19T15:34:04.000Z,3481
2023-03-19T15:35:20.000Z,3279
2023-03-19T15:36:37.000Z,3047
2023-03-19T15:37:53.000Z,2789
2023-03-19T15:39:09.000Z,2633
2023-03-19T15:40:25.000Z,2587
2023-03-19T15:41:41.000Z,2476
2023-03-19T15:42:58.000Z,3601
2023-03-19T15:44:14.000Z,3351
2023-03-19T15:45:30.000Z,3781
2023-03-19T15:46:46.000Z,4178
2023-03-19T15:48:03.000Z,4352
2023-03-19T15:49:19.000Z,4622
2023-03-19T15:50:34.000Z,5248
2023-03-19T15:51:50.000Z,6156
2023-03-19T15:53:07.000Z,6103
2023-03-19T15:54:23.000Z,9495
2023-03-19T15:55:39.000Z,8833
2023-03-19T15:56:55.000Z,8959
2023-03-19T15:58:12.000Z,8172
2023-03-19T15:59:28.000Z,8130
2023-03-19T16:00:44.000Z,6343
2023-03-19T16:02:00.000Z,8651
2023-03-19T16:03:16.000Z,6506
2023-03-19T16:04:33.000Z,7808
2023-03-19T16:05:49.000Z,6678
2023-03-19T16:07:04.000Z,6532
2023-03-19T16:08:20.000Z,6227
2023-03-19T16:09:37.000Z,5674
2023-03-19T16:10:53.000Z,5195
2023-03-19T16:12:09.000Z,5092
2023-03-19T16:13:25.000Z,4991
2023-03-19T16:14:41.000Z,4760
2023-03-19T16:15:57.000Z,4598
2023-03-19T16:17:13.000Z,4430
2023-03-19T16:18:29.000Z,4074
2023-03-19T16:19:46.000Z,4041
2023-03-19T16:21:02.000Z,4043
2023-03-19T16:22:18.000Z,4092
2023-03-19T16:23:34.000Z,4307
2023-03-19T16:24:50.000Z,4584
2023-03-19T16:26:07.000Z,4667
2023-03-19T16:27:23.000Z,4413
2023-03-19T16:28:39.000Z,3942
2023-03-19T16:29:55.000Z,3835
2023-03-19T16:31:11.000Z,3938
2023-03-19T16:32:27.000Z,3875
2023-03-19T16:33:43.000Z,3850
2023-03-19T16:34:59.000Z,3378
2023-03-19T16:36:16.000Z,3047
2023-03-19T16:37:32.000Z,5816
2023-03-19T16:38:48.000Z,4538
2023-03-19T16:40:04.000Z,5180
2023-03-19T16:41:21.000Z,6009
2023-03-19T16:42:37.000Z,4425
2023-03-19T16:43:53.000Z,1700
2023-03-19T16:45:09.000Z,4943
2023-03-19T16:46:25.000Z,5017
2023-03-19T16:47:41.000Z,8251
2023-03-19T16:48:57.000Z,3946
2023-03-19T16:50:13.000Z,3571
2023-03-19T16:51:29.000Z,3366
2023-03-19T16:52:46.000Z,2484
2023-03-19T16:54:02.000Z,3787
2023-03-19T16:55:18.000Z,3154
2023-03-19T16:56:34.000Z,2968
2023-03-19T16:57:51.000Z,1049
2023-03-19T16:59:07.000Z,1758
2023-03-19T17:00:23.000Z,5964
2023-03-19T17:01:39.000Z,2954
2023-03-19T17:02:56.000Z,1896
2023-03-19T17:04:11.000Z,954
2023-03-19T17:05:27.000Z,3934
2023-03-19T17:06:43.000Z,3022
2023-03-19T17:07:59.000Z,2683
2023-03-19T17:09:16.000Z,2007
2023-03-19T17:10:32.000Z,1772
2023-03-19T17:11:48.000Z,1702